createdAt,value
2023-02-06T00:04:27.909Z,2.60
2023-02-06T00:10:29.670Z,2.60
2023-02-06T00:16:34.349Z,2.70
2023-02-06T00:22:36.247Z,2.60
2023-02-06T00:28:38.103Z,2.60
2023-02-06T00:34:39.834Z,2.50
2023-02-06T00:40:41.599Z,2.40
2023-02-06T00:46:43.396Z,2.50
2023-02-06T00:52:45.223Z,2.50
2023-02-06T00:58:47.324Z,2.40
2023-02-06T01:04:49.149Z,2.40
2023-02-06T01:10:51.448Z,2.50
2023-02-06T01:16:53.553Z,2.60
2023-02-06T01:22:55.337Z,2.50
2023-02-06T01:28:57.337Z,2.50
2023-02-06T01:34:59.096Z,2.40
2023-02-06T01:41:01.790Z,2.40
2023-02-06T01:47:03.592Z,2.40
2023-02-06T01:53:06.902Z,2.40
2023-02-06T01:59:08.838Z,2.30
2023-02-06T02:05:12.637Z,2.40
2023-02-06T02:11:20.138Z,2.50
2023-02-06T02:17:31.983Z,2.50
2023-02-06T02:23:45.225Z,2.50
2023-02-06T02:30:35.544Z,2.60
2023-02-06T02:36:59.316Z,2.50
2023-02-06T02:43:12.251Z,2.50
2023-02-06T02:49:25.033Z,2.40
2023-02-06T02:55:27.791Z,2.50
2023-02-06T03:01:56.128Z,2.50
2023-02-06T03:08:32.412Z,2.50
2023-02-06T03:14:44.250Z,2.50
2023-02-06T03:20:47.644Z,2.50
2023-02-06T03:26:53.107Z,2.50
2023-02-06T03:33:00.826Z,2.50
2023-02-06T03:39:02.838Z,2.50
2023-02-06T03:45:14.345Z,2.50
2023-02-06T03:51:26.095Z,2.50
2023-02-06T03:57:30.326Z,2.40
2023-02-06T04:03:32.988Z,2.40
2023-02-06T04:09:34.759Z,2.40
2023-02-06T04:15:36.991Z,2.40
2023-02-06T04:21:38.901Z,2.30
2023-02-06T04:27:40.720Z,2.40
2023-02-06T04:33:42.547Z,2.30
2023-02-06T04:39:44.296Z,2.20
2023-02-06T04:45:47.034Z,2.20
2023-02-06T04:51:48.752Z,2.10
2023-02-06T04:57:50.554Z,2.10
2023-02-06T05:03:52.367Z,2.10
2023-02-06T05:09:54.108Z,2.10
2023-02-06T05:15:58.044Z,2.00
2023-02-06T05:21:59.830Z,2.20
2023-02-06T05:28:02.729Z,2.20
2023-02-06T05:34:04.782Z,2.10
2023-02-06T05:40:07.394Z,2.00
2023-02-06T05:46:09.569Z,2.10
2023-02-06T05:52:11.699Z,2.10
2023-02-06T05:58:13.518Z,2.20
2023-02-06T06:04:15.400Z,2.10
2023-02-06T06:10:17.266Z,2.10
2023-02-06T06:16:19.049Z,2.00
2023-02-06T06:22:20.847Z,2.00
2023-02-06T06:28:22.728Z,1.80
2023-02-06T06:34:24.751Z,1.70
2023-02-06T06:40:26.564Z,1.50
2023-02-06T06:46:28.498Z,1.60
2023-02-06T06:52:30.311Z,1.70
2023-02-06T06:58:32.414Z,1.60
2023-02-06T07:04:34.487Z,1.60
2023-02-06T07:10:36.274Z,1.50
2023-02-06T07:16:38.196Z,1.30
2023-02-06T07:22:40.064Z,1.10
2023-02-06T07:28:42.325Z,1.00
2023-02-06T07:34:44.298Z,0.90
2023-02-06T07:40:46.271Z,0.80
2023-02-06T07:46:48.114Z,0.80
2023-02-06T07:52:49.889Z,0.90
2023-02-06T07:58:53.607Z,0.90
2023-02-06T08:04:55.355Z,1.10
2023-02-06T08:10:57.113Z,1.20
2023-02-06T08:16:59.800Z,1.30
2023-02-06T08:23:01.649Z,1.30
2023-02-06T08:29:05.178Z,1.50
2023-02-06T08:35:07.058Z,1.50
2023-02-06T08:41:22.499Z,1.50
2023-02-06T08:47:24.269Z,1.50
2023-02-06T08:53:26.057Z,1.50
2023-02-06T08:59:31.167Z,1.50
2023-02-06T09:05:32.914Z,1.40
2023-02-06T09:11:34.968Z,1.40
2023-02-06T09:17:36.690Z,1.40
2023-02-06T09:23:43.825Z,1.30
2023-02-06T09:29:46.799Z,1.70
2023-02-06T09:35:48.631Z,1.60
2023-02-06T09:41:57.943Z,1.50
2023-02-06T09:48:22.277Z,1.60
2023-02-06T09:54:38.378Z,1.80
2023-02-06T10:00:46.692Z,1.80
2023-02-06T10:06:55.882Z,1.90
2023-02-06T10:13:03.993Z,2.00
2023-02-06T10:19:16.203Z,2.10
2023-02-06T10:25:29.866Z,2.00
2023-02-06T10:31:47.736Z,2.10
2023-02-06T10:38:17.211Z,2.30
2023-02-06T10:44:27.927Z,2.80
2023-02-06T10:50:54.405Z,2.90
2023-02-06T10:56:58.105Z,2.80
2023-02-06T11:03:08.140Z,2.70
2023-02-06T11:09:10.936Z,2.90
2023-02-06T11:15:32.594Z,3.00
2023-02-06T11:21:46.252Z,3.10
2023-02-06T11:27:48.864Z,3.20
2023-02-06T11:33:56.792Z,3.30
2023-02-06T11:40:30.998Z,3.60
2023-02-06T11:46:37.043Z,3.40
2023-02-06T11:52:40.047Z,3.50
2023-02-06T11:58:42.187Z,3.50
2023-02-06T12:04:43.921Z,3.50
2023-02-06T12:10:59.644Z,3.60
2023-02-06T12:17:04.098Z,3.60
2023-02-06T12:23:15.387Z,3.60
2023-02-06T12:29:30.262Z,3.80
2023-02-06T12:35:41.244Z,3.80
2023-02-06T12:42:04.502Z,3.80
2023-02-06T12:48:24.803Z,3.60
2023-02-06T12:54:37.419Z,3.70
2023-02-06T13:01:03.001Z,3.70
2023-02-06T13:07:16.117Z,3.90
2023-02-06T13:13:28.682Z,3.60
2023-02-06T13:19:52.784Z,3.60
2023-02-06T13:25:54.589Z,3.40
2023-02-06T13:32:11.928Z,3.30
2023-02-06T13:38:22.835Z,3.40
2023-02-06T13:44:33.816Z,3.20
2023-02-06T13:50:45.707Z,3.00
2023-02-06T13:57:04.743Z,3.50
2023-02-06T14:03:30.525Z,3.80
2023-02-06T14:10:05.165Z,3.40
2023-02-06T14:16:33.445Z,3.00
2023-02-06T14:22:58.780Z,2.90
2023-02-06T14:29:38.845Z,3.00
2023-02-06T14:36:09.493Z,3.00
2023-02-06T14:42:22.510Z,2.80
2023-02-06T14:48:46.319Z,2.70
2023-02-06T14:54:48.127Z,2.60
2023-02-06T15:00:49.906Z,2.60
2023-02-06T15:07:03.246Z,2.60
2023-02-06T15:13:05.197Z,2.60
2023-02-06T15:19:21.833Z,2.70
2023-02-06T15:25:53.794Z,2.50
2023-02-06T15:32:00.742Z,2.30
2023-02-06T15:38:05.936Z,2.20
2023-02-06T15:44:18.638Z,2.10
2023-02-06T15:50:24.891Z,2.00
2023-02-06T15:56:30.627Z,1.80
2023-02-06T16:02:35.845Z,1.50
2023-02-06T16:08:38.111Z,1.30
2023-02-06T16:14:41.754Z,1.00
2023-02-06T16:20:44.080Z,0.80
2023-02-06T16:26:52.179Z,0.50
2023-02-06T16:32:55.715Z,0.20
2023-02-06T16:39:03.988Z,0.00
2023-02-06T16:45:09.816Z,-0.10
2023-02-06T16:51:23.813Z,-0.20
2023-02-06T16:57:33.101Z,-0.40
2023-02-06T17:03:37.811Z,-0.60
2023-02-06T17:09:40.109Z,-0.70
2023-02-06T17:15:42.493Z,-0.70
2023-02-06T17:21:44.282Z,-0.70
2023-02-06T17:27:46.196Z,-0.70
2023-02-06T17:33:48.135Z,-0.80
2023-02-06T17:39:52.315Z,-0.70
2023-02-06T17:45:54.129Z,-0.70
2023-02-06T17:51:56.624Z,-0.90
2023-02-06T17:57:58.905Z,-1.20
2023-02-06T18:04:01.022Z,-1.30
2023-02-06T18:10:02.791Z,-1.50
2023-02-06T18:16:04.780Z,-1.50
2023-02-06T18:22:06.986Z,-1.30
2023-02-06T18:28:09.260Z,-1.30
2023-02-06T18:34:11.423Z,-1.20
2023-02-06T18:40:13.284Z,-1.30
2023-02-06T18:46:15.094Z,-1.30
2023-02-06T18:52:17.873Z,-1.30
2023-02-06T18:58:19.674Z,-0.90
2023-02-06T19:04:21.816Z,-0.60
2023-02-06T19:10:23.831Z,-0.50
2023-02-06T19:16:28.249Z,-0.30
2023-02-06T19:22:30.065Z,-0.20
2023-02-06T19:28:31.845Z,-0.10
2023-02-06T19:34:37.428Z,0.00
2023-02-06T19:40:40.234Z,0.20
2023-02-06T19:46:42.071Z,0.30
2023-02-06T19:52:43.826Z,0.40
2023-02-06T19:58:45.684Z,0.40
2023-02-06T20:04:47.478Z,0.50
2023-02-06T20:10:49.226Z,0.50
2023-02-06T20:16:51.116Z,0.50
2023-02-06T20:22:52.905Z,0.50
2023-02-06T20:28:55.162Z,0.50
2023-02-06T20:34:57.783Z,0.50
2023-02-06T20:40:59.575Z,0.30
2023-02-06T20:47:01.396Z,0.10
2023-02-06T20:53:06.384Z,0.00
2023-02-06T20:59:11.921Z,0.00
2023-02-06T21:05:13.632Z,0.10
2023-02-06T21:11:15.782Z,0.10
2023-02-06T21:17:17.518Z,0.00
2023-02-06T21:23:19.238Z,0.10
2023-02-06T21:29:22.988Z,0.20
2023-02-06T21:35:28.635Z,0.10
2023-02-06T21:41:30.490Z,-0.10
2023-02-06T21:47:32.304Z,-0.30
2023-02-06T21:53:34.075Z,-0.60
2023-02-06T21:59:37.975Z,-0.90
2023-02-06T22:05:40.141Z,-1.30
2023-02-06T22:11:43.162Z,-1.60
2023-02-06T22:17:44.928Z,-1.80
2023-02-06T22:23:48.054Z,-2.00
2023-02-06T22:29:50.283Z,-2.10
2023-02-06T22:35:52.029Z,-2.10
2023-02-06T22:41:53.796Z,-2.20
2023-02-06T22:47:55.526Z,-2.20
2023-02-06T22:53:57.676Z,-2.20
2023-02-06T22:59:59.501Z,-2.30
2023-02-06T23:06:02.874Z,-2.40
2023-02-06T23:12:08.488Z,-2.50
2023-02-06T23:18:10.293Z,-2.60
2023-02-06T23:24:12.796Z,-2.70
2023-02-06T23:30:14.502Z,-2.70
2023-02-06T23:36:18.755Z,-2.70
2023-02-06T23:42:20.493Z,-2.50
2023-02-06T23:48:22.228Z,-2.20
2023-02-06T23:54:24.000Z,-1.80
